createdAt,value
2023-08-19T00:00:07.308Z,19.80
2023-08-19T00:01:07.246Z,19.83
2023-08-19T00:02:07.247Z,19.85
2023-08-19T00:03:07.454Z,19.85
2023-08-19T00:04:07.182Z,19.83
2023-08-19T00:05:07.200Z,19.82
2023-08-19T00:06:07.153Z,19.79
2023-08-19T00:07:07.133Z,19.76
2023-08-19T00:08:07.120Z,19.75
2023-08-19T00:09:07.116Z,19.68
2023-08-19T00:10:07.113Z,19.65
2023-08-19T00:11:07.095Z,19.62
2023-08-19T00:12:07.086Z,19.60
2023-08-19T00:13:07.327Z,19.58
2023-08-19T00:14:07.065Z,19.55
2023-08-19T00:15:07.035Z,19.53
2023-08-19T00:16:07.044Z,19.50
2023-08-19T00:17:07.042Z,19.49
2023-08-19T00:18:07.035Z,19.49
2023-08-19T00:19:06.958Z,19.50
2023-08-19T00:20:06.959Z,19.50
2023-08-19T00:21:07.097Z,19.50
2023-08-19T00:22:06.961Z,19.52
2023-08-19T00:23:06.928Z,19.52
2023-08-19T00:24:06.908Z,19.53
2023-08-19T00:25:06.902Z,19.55
2023-08-19T00:26:06.884Z,19.60
2023-08-19T00:27:06.902Z,19.61
2023-08-19T00:28:06.900Z,19.61
2023-08-19T00:29:06.825Z,19.60
2023-08-19T00:30:06.848Z,19.58
2023-08-19T00:31:06.834Z,19.53
2023-08-19T00:32:06.827Z,19.50
2023-08-19T00:33:06.828Z,19.47
2023-08-19T00:34:06.786Z,19.45
2023-08-19T00:35:06.759Z,19.43
2023-08-19T00:36:06.764Z,19.43
2023-08-19T00:37:06.745Z,19.42
2023-08-19T00:38:06.851Z,19.40
2023-08-19T00:39:06.700Z,19.38
2023-08-19T00:40:06.712Z,19.34
2023-08-19T00:41:06.703Z,19.34
2023-08-19T00:42:06.696Z,19.32
2023-08-19T00:43:06.667Z,19.30
2023-08-19T00:44:06.669Z,19.30
2023-08-19T00:45:06.627Z,19.28
2023-08-19T00:46:06.659Z,19.27
2023-08-19T00:47:06.607Z,19.25
2023-08-19T00:48:06.613Z,19.25
2023-08-19T00:49:06.588Z,19.23
2023-08-19T00:50:06.602Z,19.20
2023-08-19T00:51:06.884Z,19.20
2023-08-19T00:52:06.548Z,19.16
2023-08-19T00:53:06.519Z,19.15
2023-08-19T00:54:06.518Z,19.16
2023-08-19T00:55:06.506Z,19.16
2023-08-19T00:56:06.552Z,19.20
2023-08-19T00:57:06.472Z,19.20
2023-08-19T00:58:06.462Z,19.25
2023-08-19T00:59:06.457Z,19.28
2023-08-19T01:00:06.457Z,19.30
2023-08-19T01:01:06.417Z,19.30
2023-08-19T01:02:06.418Z,19.30
2023-08-19T01:03:06.487Z,19.28
2023-08-19T01:04:06.597Z,19.27
2023-08-19T01:05:06.360Z,19.24
2023-08-19T01:06:06.463Z,19.24
2023-08-19T01:07:06.338Z,19.24
2023-08-19T01:08:06.318Z,19.21
2023-08-19T01:09:06.378Z,19.16
2023-08-19T01:10:06.315Z,19.16
2023-08-19T01:11:06.360Z,19.13
2023-08-19T01:12:06.295Z,19.10
2023-08-19T01:13:06.267Z,19.07
2023-08-19T01:14:06.272Z,19.05
2023-08-19T01:15:06.236Z,19.05
2023-08-19T01:16:06.275Z,19.01
2023-08-19T01:17:06.213Z,18.97
2023-08-19T01:18:06.208Z,18.96
2023-08-19T01:19:06.192Z,18.96
2023-08-19T01:20:06.171Z,18.93
2023-08-19T01:21:06.195Z,18.91
2023-08-19T01:22:06.157Z,18.90
2023-08-19T01:23:06.334Z,18.89
2023-08-19T01:24:06.157Z,18.87
2023-08-19T01:25:06.106Z,18.87
2023-08-19T01:26:06.092Z,18.84
2023-08-19T01:27:06.270Z,18.83
2023-08-19T01:28:06.077Z,18.83
2023-08-19T01:29:06.069Z,18.82
2023-08-19T01:30:06.042Z,18.79
2023-08-19T01:31:06.081Z,18.79
2023-08-19T01:32:06.023Z,18.76
2023-08-19T01:33:06.056Z,18.82
2023-08-19T01:34:06.009Z,18.84
2023-08-19T01:35:05.983Z,18.84
2023-08-19T01:36:05.970Z,18.84
2023-08-19T01:37:05.959Z,18.84
2023-08-19T01:38:05.953Z,18.90
2023-08-19T01:39:05.937Z,18.89
2023-08-19T01:40:06.089Z,18.87
2023-08-19T01:41:05.927Z,18.86
2023-08-19T01:42:06.033Z,18.83
2023-08-19T01:43:05.856Z,18.82
2023-08-19T01:44:06.024Z,18.79
2023-08-19T01:45:05.839Z,18.79
2023-08-19T01:46:05.900Z,18.79
2023-08-19T01:47:05.830Z,18.76
2023-08-19T01:48:05.836Z,18.75
2023-08-19T01:49:05.796Z,18.74
2023-08-19T01:50:05.902Z,18.71
2023-08-19T01:51:05.772Z,18.69
2023-08-19T01:52:05.951Z,18.68
2023-08-19T01:53:05.730Z,18.68
2023-08-19T01:54:05.895Z,18.68
2023-08-19T01:55:05.691Z,18.68
2023-08-19T01:56:05.841Z,18.69
2023-08-19T01:57:05.679Z,18.68
2023-08-19T01:58:05.660Z,18.66
2023-08-19T01:59:05.743Z,18.65
2023-08-19T02:00:05.691Z,18.62
2023-08-19T02:01:05.720Z,18.62
2023-08-19T02:02:05.621Z,18.59
2023-08-19T02:03:05.766Z,18.59
2023-08-19T02:04:05.607Z,18.56
2023-08-19T02:05:05.682Z,18.54
2023-08-19T02:06:05.575Z,18.53
2023-08-19T02:07:05.538Z,18.51
2023-08-19T02:08:05.549Z,18.51
2023-08-19T02:09:05.581Z,18.50
2023-08-19T02:10:05.701Z,18.49
2023-08-19T02:11:05.477Z,18.47
2023-08-19T02:12:05.478Z,18.44
2023-08-19T02:13:05.447Z,18.41
2023-08-19T02:14:05.685Z,18.42
2023-08-19T02:15:05.437Z,18.39
2023-08-19T02:16:05.553Z,18.38
2023-08-19T02:17:05.411Z,18.38
2023-08-19T02:18:05.415Z,18.38
2023-08-19T02:19:05.421Z,18.38
2023-08-19T02:20:05.405Z,18.38
2023-08-19T02:21:05.356Z,18.35
2023-08-19T02:22:05.422Z,18.32
2023-08-19T02:23:05.317Z,18.29
2023-08-19T02:24:05.350Z,18.31
2023-08-19T02:25:05.289Z,18.31
2023-08-19T02:26:05.434Z,18.34
2023-08-19T02:27:05.273Z,18.35
2023-08-19T02:28:05.301Z,18.35
2023-08-19T02:29:05.274Z,18.35
2023-08-19T02:30:05.233Z,18.35
2023-08-19T02:31:05.379Z,18.35
2023-08-19T02:32:05.230Z,18.34
2023-08-19T02:33:05.347Z,18.32
2023-08-19T02:34:05.214Z,18.31
2023-08-19T02:35:05.177Z,18.31
2023-08-19T02:36:05.170Z,18.28
2023-08-19T02:37:05.282Z,18.28
2023-08-19T02:38:05.157Z,18.26
2023-08-19T02:39:05.352Z,18.28
2023-08-19T02:40:05.113Z,18.25
2023-08-19T02:41:05.095Z,18.21
2023-08-19T02:42:05.096Z,18.23
2023-08-19T02:43:05.242Z,18.23
2023-08-19T02:44:05.063Z,18.23
2023-08-19T02:45:05.064Z,18.21
2023-08-19T02:46:05.049Z,18.21
2023-08-19T02:47:05.131Z,18.20
2023-08-19T02:48:05.127Z,18.19
2023-08-19T02:49:04.998Z,18.17
2023-08-19T02:50:04.976Z,18.17
2023-08-19T02:51:05.148Z,18.17
2023-08-19T02:52:04.963Z,18.17
2023-08-19T02:53:04.932Z,18.16
2023-08-19T02:54:04.908Z,18.16
2023-08-19T02:55:04.901Z,18.16
2023-08-19T02:56:04.925Z,18.14
2023-08-19T02:57:04.883Z,18.13
2023-08-19T02:58:04.884Z,18.11
2023-08-19T02:59:04.845Z,18.10
2023-08-19T03:00:04.869Z,18.10
2023-08-19T03:01:04.898Z,18.09
2023-08-19T03:02:04.808Z,18.09
2023-08-19T03:03:04.906Z,18.09
2023-08-19T03:04:04.780Z,18.10
2023-08-19T03:05:04.798Z,18.13
2023-08-19T03:06:04.937Z,18.13
2023-08-19T03:07:04.737Z,18.13
2023-08-19T03:08:04.749Z,18.14
2023-08-19T03:09:04.722Z,18.11
2023-08-19T03:10:04.721Z,18.10
2023-08-19T03:11:04.694Z,18.10
2023-08-19T03:12:04.678Z,18.07
2023-08-19T03:13:04.752Z,18.05
2023-08-19T03:14:04.643Z,18.01
2023-08-19T03:15:04.687Z,17.99
2023-08-19T03:16:04.652Z,17.98
2023-08-19T03:17:04.672Z,17.98
2023-08-19T03:18:04.646Z,17.98
2023-08-19T03:19:04.616Z,17.98
2023-08-19T03:20:04.817Z,17.99
2023-08-19T03:21:04.556Z,18.01
2023-08-19T03:22:04.560Z,18.01
2023-08-19T03:23:04.566Z,18.01
2023-08-19T03:24:04.559Z,18.02
2023-08-19T03:25:04.535Z,18.01
2023-08-19T03:26:04.526Z,17.99
2023-08-19T03:27:04.488Z,17.99
2023-08-19T03:28:04.465Z,17.98
2023-08-19T03:29:04.486Z,17.98
2023-08-19T03:30:04.443Z,17.96
2023-08-19T03:31:04.421Z,17.94
2023-08-19T03:32:04.418Z,17.92
2023-08-19T03:33:04.632Z,17.91
2023-08-19T03:34:04.519Z,17.89
2023-08-19T03:35:04.391Z,17.87
2023-08-19T03:36:04.350Z,17.87
2023-08-19T03:37:04.347Z,17.86
2023-08-19T03:38:04.405Z,17.84
2023-08-19T03:39:04.305Z,17.84
2023-08-19T03:40:04.309Z,17.84
2023-08-19T03:41:04.294Z,17.86
2023-08-19T03:42:04.285Z,17.84
2023-08-19T03:43:04.285Z,17.84
2023-08-19T03:44:04.256Z,17.83
2023-08-19T03:45:04.232Z,17.84
2023-08-19T03:46:04.304Z,17.81
2023-08-19T03:47:04.246Z,17.83
2023-08-19T03:48:04.235Z,17.84
2023-08-19T03:49:04.200Z,17.86
2023-08-19T03:50:04.207Z,17.86
2023-08-19T03:51:04.161Z,17.87
2023-08-19T03:52:04.177Z,17.87
2023-08-19T03:53:04.137Z,17.87
2023-08-19T03:54:04.136Z,17.86
2023-08-19T03:55:04.135Z,17.86
2023-08-19T03:56:04.115Z,17.84
2023-08-19T03:57:04.100Z,17.83
2023-08-19T03:58:04.070Z,17.81
2023-08-19T03:59:04.082Z,17.83
2023-08-19T04:00:04.059Z,17.81
2023-08-19T04:01:04.051Z,17.80
2023-08-19T04:02:04.061Z,17.81
2023-08-19T04:03:04.114Z,17.80
2023-08-19T04:04:04.023Z,17.80
2023-08-19T04:05:05.935Z,17.79
2023-08-19T04:06:03.988Z,17.79
2023-08-19T04:07:03.962Z,17.80
2023-08-19T04:08:03.939Z,17.84
2023-08-19T04:09:04.027Z,17.89
2023-08-19T04:10:03.994Z,17.94
2023-08-19T04:11:03.920Z,17.91
2023-08-19T04:12:03.911Z,17.92
2023-08-19T04:13:03.910Z,17.92
2023-08-19T04:14:03.916Z,17.94
2023-08-19T04:15:03.885Z,17.96
2023-08-19T04:16:03.865Z,17.98
2023-08-19T04:17:03.818Z,17.96
2023-08-19T04:18:03.942Z,17.96
2023-08-19T04:19:03.803Z,17.98
2023-08-19T04:20:03.797Z,17.98
2023-08-19T04:21:03.795Z,17.96
2023-08-19T04:22:03.745Z,17.98
2023-08-19T04:23:03.752Z,17.99
2023-08-19T04:24:03.760Z,18.01
2023-08-19T04:25:03.768Z,18.02
2023-08-19T04:26:03.731Z,18.04
2023-08-19T04:27:03.693Z,18.05
2023-08-19T04:28:03.692Z,18.07
2023-08-19T04:29:03.694Z,18.07
2023-08-19T04:30:03.657Z,18.09
2023-08-19T04:31:03.658Z,18.11
2023-08-19T04:32:03.666Z,18.17
2023-08-19T04:33:03.671Z,18.20
2023-08-19T04:34:03.666Z,18.23
2023-08-19T04:35:03.589Z,18.26
2023-08-19T04:36:03.564Z,18.26
2023-08-19T04:37:03.583Z,18.31
2023-08-19T04:38:03.562Z,18.31
2023-08-19T04:39:03.582Z,18.35
2023-08-19T04:40:03.536Z,18.39
2023-08-19T04:41:03.535Z,18.46
2023-08-19T04:42:03.549Z,18.54
2023-08-19T04:43:03.494Z,18.60
2023-08-19T04:44:03.521Z,18.66
2023-08-19T04:45:03.462Z,18.69
2023-08-19T04:46:03.456Z,18.75
2023-08-19T04:47:03.439Z,18.76
2023-08-19T04:48:03.448Z,18.82
2023-08-19T04:49:03.453Z,18.87
2023-08-19T04:50:03.400Z,18.89
2023-08-19T04:51:03.393Z,18.93
2023-08-19T04:52:03.402Z,19.02
2023-08-19T04:53:03.358Z,19.20
2023-08-19T04:54:03.343Z,19.47
2023-08-19T04:55:03.337Z,19.79
2023-08-19T04:56:03.453Z,20.04
2023-08-19T04:57:03.325Z,20.19
2023-08-19T04:58:03.306Z,20.38
2023-08-19T04:59:03.296Z,20.69
2023-08-19T05:00:03.274Z,21.06
2023-08-19T05:01:03.329Z,21.30
2023-08-19T05:02:03.285Z,21.40
2023-08-19T05:03:03.291Z,21.49
2023-08-19T05:04:03.257Z,21.49
2023-08-19T05:05:03.204Z,21.49
2023-08-19T05:06:03.213Z,21.43
2023-08-19T05:07:03.238Z,21.43
2023-08-19T05:08:03.149Z,21.43
2023-08-19T05:09:03.189Z,21.40
2023-08-19T05:10:03.156Z,21.40
2023-08-19T05:11:03.138Z,21.38
2023-08-19T05:12:03.132Z,21.40
2023-08-19T05:13:03.091Z,21.40
2023-08-19T05:14:03.084Z,21.42
2023-08-19T05:15:03.091Z,21.42
2023-08-19T05:16:03.115Z,21.42
2023-08-19T05:17:03.066Z,21.42
2023-08-19T05:18:03.028Z,21.45
2023-08-19T05:19:03.026Z,21.48
2023-08-19T05:20:03.029Z,21.48
2023-08-19T05:21:03.014Z,21.51
2023-08-19T05:22:02.967Z,21.51
2023-08-19T05:23:03.071Z,21.58
2023-08-19T05:24:02.951Z,21.61
2023-08-19T05:25:02.967Z,21.71
2023-08-19T05:26:02.936Z,21.83
2023-08-19T05:27:02.922Z,22.04
2023-08-19T05:28:02.897Z,22.23
2023-08-19T05:29:02.939Z,22.41
2023-08-19T05:30:02.887Z,22.57
2023-08-19T05:31:02.892Z,22.84
2023-08-19T05:32:02.852Z,23.11
2023-08-19T05:33:02.910Z,23.41
2023-08-19T05:34:02.837Z,23.62
2023-08-19T05:35:02.814Z,23.74
2023-08-19T05:36:02.796Z,23.78
2023-08-19T05:37:02.806Z,23.79
2023-08-19T05:38:02.794Z,23.82
2023-08-19T05:39:03.010Z,23.94
2023-08-19T05:40:02.746Z,24.06
2023-08-19T05:41:02.741Z,24.12
2023-08-19T05:42:02.730Z,24.19
2023-08-19T05:43:02.734Z,24.29
2023-08-19T05:44:02.704Z,24.39
2023-08-19T05:45:02.800Z,24.48
2023-08-19T05:46:02.787Z,24.48
2023-08-19T05:47:02.688Z,24.48
2023-08-19T05:48:02.687Z,24.45
2023-08-19T05:49:02.693Z,24.53
2023-08-19T05:50:02.622Z,24.63
2023-08-19T05:51:02.657Z,24.75
2023-08-19T05:52:02.649Z,24.94
2023-08-19T05:53:02.795Z,25.27
2023-08-19T05:54:02.564Z,25.66
2023-08-19T05:55:03.084Z,26.01
2023-08-19T05:56:02.532Z,26.17
2023-08-19T05:57:02.549Z,26.23
2023-08-19T05:58:02.504Z,26.34
2023-08-19T05:59:02.518Z,26.59
2023-08-19T06:00:02.515Z,27.01
2023-08-19T06:01:02.528Z,27.50
2023-08-19T06:02:02.480Z,28.01
2023-08-19T06:03:02.506Z,28.46
2023-08-19T06:04:02.458Z,28.88
2023-08-19T06:05:02.433Z,29.35
2023-08-19T06:06:02.536Z,29.73
2023-08-19T06:07:02.422Z,30.06
2023-08-19T06:08:02.375Z,30.32
2023-08-19T06:09:02.384Z,30.63
2023-08-19T06:10:02.383Z,30.90
2023-08-19T06:11:03.153Z,31.12
2023-08-19T06:12:02.335Z,31.34
2023-08-19T06:13:09.873Z,31.49
2023-08-19T06:14:03.336Z,31.69
2023-08-19T06:15:03.845Z,31.98
2023-08-19T06:16:05.091Z,32.24
2023-08-19T06:17:03.873Z,32.53
2023-08-19T06:18:04.445Z,32.80
2023-08-19T06:19:03.905Z,33.12
2023-08-19T06:20:02.343Z,33.43
2023-08-19T06:21:03.324Z,33.74
2023-08-19T06:22:04.698Z,34.03
2023-08-19T06:23:02.705Z,34.31
2023-08-19T06:24:02.582Z,34.63
2023-08-19T06:25:03.439Z,34.86
2023-08-19T06:26:02.155Z,35.07
2023-08-19T06:27:03.058Z,35.24
2023-08-19T06:28:02.566Z,35.32
2023-08-19T06:29:02.540Z,35.37
2023-08-19T06:30:02.113Z,35.49
2023-08-19T06:31:02.104Z,35.61
2023-08-19T06:32:02.065Z,35.83
2023-08-19T06:33:02.081Z,35.98
2023-08-19T06:34:02.057Z,36.12
2023-08-19T06:35:02.086Z,36.34
2023-08-19T06:36:02.150Z,36.53
2023-08-19T06:37:02.022Z,36.74
2023-08-19T06:38:02.011Z,36.93
2023-08-19T06:39:02.029Z,37.05
2023-08-19T06:40:02.008Z,37.20
2023-08-19T06:41:01.963Z,37.38
2023-08-19T06:42:01.949Z,37.49
2023-08-19T06:43:01.945Z,37.65
2023-08-19T06:44:01.946Z,37.85
2023-08-19T06:45:01.919Z,37.99
2023-08-19T06:46:01.940Z,38.15
2023-08-19T06:47:01.914Z,38.43
2023-08-19T06:48:01.947Z,38.67
2023-08-19T06:49:01.882Z,38.78
2023-08-19T06:50:01.895Z,38.77
2023-08-19T06:51:01.846Z,38.86
2023-08-19T06:52:02.000Z,38.97
2023-08-19T06:53:01.866Z,39.00
2023-08-19T06:54:01.822Z,39.05
2023-08-19T06:55:01.800Z,38.95
2023-08-19T06:56:01.799Z,38.95
2023-08-19T06:57:01.778Z,38.97
2023-08-19T06:58:01.850Z,39.01
2023-08-19T06:59:01.758Z,39.12
2023-08-19T07:00:01.756Z,39.17
2023-08-19T07:01:01.832Z,39.27
2023-08-19T07:02:01.787Z,39.34
2023-08-19T07:03:01.775Z,39.48
2023-08-19T07:04:01.774Z,39.63
2023-08-19T07:05:01.683Z,39.56
2023-08-19T07:06:01.693Z,39.59
2023-08-19T07:07:01.676Z,39.61
2023-08-19T07:08:01.637Z,39.53
2023-08-19T07:09:01.656Z,39.46
2023-08-19T07:10:01.764Z,39.56
2023-08-19T07:11:01.631Z,39.65
2023-08-19T07:12:01.619Z,39.65
2023-08-19T07:13:01.661Z,39.65
2023-08-19T07:14:01.567Z,39.78
2023-08-19T07:15:01.556Z,39.91
2023-08-19T07:16:01.591Z,40.07
2023-08-19T07:17:01.557Z,40.26
2023-08-19T07:18:01.535Z,40.28
2023-08-19T07:19:01.505Z,40.28
2023-08-19T07:20:01.651Z,40.38
2023-08-19T07:21:08.478Z,40.29
2023-08-19T07:22:01.514Z,40.24
2023-08-19T07:24:01.483Z,39.92
2023-08-19T07:25:01.447Z,39.92
2023-08-19T07:26:01.451Z,39.94
2023-08-19T07:27:01.541Z,39.73
2023-08-19T07:28:01.415Z,39.56
2023-08-19T07:29:01.402Z,39.63
2023-08-19T07:30:01.419Z,39.85
2023-08-19T07:31:01.410Z,40.11
2023-08-19T07:32:01.455Z,40.38
2023-08-19T07:33:01.384Z,40.42
2023-08-19T07:34:01.432Z,40.42
2023-08-19T07:35:01.339Z,40.41
2023-08-19T07:36:01.336Z,40.45
2023-08-19T07:37:01.510Z,40.53
2023-08-19T07:38:01.309Z,40.68
2023-08-19T07:39:01.419Z,40.78
2023-08-19T07:40:01.355Z,40.79
2023-08-19T07:41:01.387Z,40.72
2023-08-19T07:42:01.322Z,40.78
2023-08-19T07:43:01.264Z,40.78
2023-08-19T07:44:01.263Z,40.72
2023-08-19T07:45:01.206Z,40.80
2023-08-19T07:46:01.369Z,40.76
2023-08-19T07:47:01.188Z,40.73
2023-08-19T07:48:01.278Z,40.78
2023-08-19T07:49:01.325Z,40.82
2023-08-19T07:50:01.153Z,40.82
2023-08-19T07:51:01.215Z,40.85
2023-08-19T07:52:01.135Z,40.95
2023-08-19T07:53:01.186Z,41.00
2023-08-19T07:54:01.226Z,41.07
2023-08-19T07:55:01.121Z,41.12
2023-08-19T07:56:01.087Z,41.21
2023-08-19T07:57:01.093Z,41.42
2023-08-19T07:58:01.201Z,41.60
2023-08-19T07:59:01.057Z,41.63
2023-08-19T08:00:01.060Z,41.70
2023-08-19T08:01:01.033Z,41.80
2023-08-19T08:02:01.116Z,41.73
2023-08-19T08:03:01.039Z,41.63
2023-08-19T08:04:01.064Z,41.33
2023-08-19T08:05:01.207Z,41.20
2023-08-19T08:06:01.016Z,41.28
2023-08-19T08:07:01.186Z,41.36
2023-08-19T08:08:00.965Z,41.46
2023-08-19T08:09:01.116Z,41.62
2023-08-19T08:10:00.942Z,41.42
2023-08-19T08:11:00.904Z,41.33
2023-08-19T08:12:00.949Z,41.32
2023-08-19T08:13:00.990Z,41.25
2023-08-19T08:14:00.907Z,41.38
2023-08-19T08:15:00.868Z,41.35
2023-08-19T08:16:01.090Z,41.35
2023-08-19T08:17:00.872Z,41.26
2023-08-19T08:18:00.905Z,41.10
2023-08-19T08:19:00.828Z,41.12
2023-08-19T08:20:00.847Z,41.25
2023-08-19T08:21:00.884Z,41.25
2023-08-19T08:22:00.808Z,41.21
2023-08-19T08:23:00.788Z,41.31
2023-08-19T08:24:00.775Z,41.29
2023-08-19T08:25:00.787Z,41.12
2023-08-19T08:26:00.785Z,41.13
2023-08-19T08:27:00.754Z,41.13
2023-08-19T08:28:00.859Z,40.79
2023-08-19T08:29:00.710Z,40.64
2023-08-19T08:30:00.749Z,40.80
2023-08-19T08:31:00.714Z,40.98
2023-08-19T08:32:00.788Z,40.98
2023-08-19T08:33:03.801Z,40.72
2023-08-19T08:34:00.669Z,40.63
2023-08-19T08:35:00.648Z,40.56
2023-08-19T08:36:00.649Z,40.61
2023-08-19T08:37:00.627Z,40.68
2023-08-19T08:38:00.644Z,40.88
2023-08-19T08:39:00.613Z,41.02
2023-08-19T08:40:00.688Z,41.04
2023-08-19T08:41:00.583Z,41.05
2023-08-19T08:42:00.578Z,41.21
2023-08-19T08:43:00.561Z,41.46
2023-08-19T08:44:00.574Z,41.62
2023-08-19T08:45:00.583Z,41.69
2023-08-19T08:46:00.534Z,41.82
2023-08-19T08:47:00.510Z,41.86
2023-08-19T08:48:00.574Z,41.72
2023-08-19T08:49:02.762Z,41.41
2023-08-19T08:50:01.757Z,41.31
2023-08-19T08:51:01.401Z,41.31
2023-08-19T08:52:01.850Z,41.35
2023-08-19T08:53:00.973Z,41.39
2023-08-19T08:54:02.385Z,41.46
2023-08-19T08:55:01.823Z,41.44
2023-08-19T08:56:01.181Z,41.35
2023-08-19T08:57:01.504Z,41.31
2023-08-19T08:58:02.207Z,41.31
2023-08-19T08:59:01.436Z,41.46
2023-08-19T09:00:01.214Z,41.58
2023-08-19T09:01:02.217Z,41.54
2023-08-19T09:02:00.325Z,41.41
2023-08-19T09:03:01.496Z,41.38
2023-08-19T09:04:01.407Z,41.38
2023-08-19T09:05:01.575Z,41.29
2023-08-19T09:06:01.344Z,41.32
2023-08-19T09:07:00.940Z,41.33
2023-08-19T09:08:01.705Z,41.32
2023-08-19T09:09:01.637Z,41.21
2023-08-19T09:10:01.324Z,41.25
2023-08-19T09:11:01.319Z,41.33
2023-08-19T09:12:01.856Z,41.47
2023-08-19T09:13:01.473Z,41.57
2023-08-19T09:14:01.183Z,41.67
2023-08-19T09:15:03.184Z,41.72
2023-08-19T09:16:01.582Z,41.63
2023-08-19T09:17:00.152Z,41.26
2023-08-19T09:18:00.185Z,40.83
2023-08-19T09:19:00.129Z,40.58
2023-08-19T09:20:00.148Z,40.34
2023-08-19T09:21:00.152Z,40.18
2023-08-19T09:22:00.125Z,40.16
2023-08-19T09:23:00.103Z,40.07
2023-08-19T09:24:00.077Z,40.06
2023-08-19T09:25:00.149Z,40.00
2023-08-19T09:26:00.075Z,40.10
2023-08-19T09:27:00.037Z,40.22
2023-08-19T09:28:00.038Z,40.36
2023-08-19T09:29:00.004Z,40.44
2023-08-19T09:30:00.012Z,40.45
2023-08-19T09:31:00.029Z,40.24
2023-08-19T09:31:59.977Z,40.00
2023-08-19T09:32:59.996Z,39.84
2023-08-19T09:33:59.963Z,39.80
2023-08-19T09:34:59.939Z,39.61
2023-08-19T09:36:00.139Z,39.36
2023-08-19T09:36:59.935Z,39.32
2023-08-19T09:37:59.921Z,39.27
2023-08-19T09:38:59.889Z,39.25
2023-08-19T09:39:59.900Z,39.31
2023-08-19T09:40:59.859Z,39.34
2023-08-19T09:41:59.883Z,39.31
2023-08-19T09:42:59.850Z,39.28
2023-08-19T09:43:59.830Z,39.31
2023-08-19T09:44:59.865Z,39.38
2023-08-19T09:45:59.837Z,39.34
2023-08-19T09:46:59.836Z,39.27
2023-08-19T09:47:59.843Z,39.20
2023-08-19T09:48:59.778Z,39.19
2023-08-19T09:49:59.796Z,39.16
2023-08-19T09:50:59.743Z,39.10
2023-08-19T09:51:59.837Z,39.10
2023-08-19T09:52:59.739Z,39.01
2023-08-19T09:53:59.742Z,38.87
2023-08-19T09:54:59.695Z,38.67
2023-08-19T09:55:59.726Z,38.49
2023-08-19T09:56:59.687Z,38.34
2023-08-19T09:57:59.773Z,38.15
2023-08-19T09:58:59.681Z,38.06
2023-08-19T09:59:59.692Z,38.06
2023-08-19T10:00:59.675Z,38.07
2023-08-19T10:01:59.629Z,38.03
2023-08-19T10:02:59.643Z,38.02
2023-08-19T10:03:59.641Z,37.93
2023-08-19T10:04:59.577Z,37.82
2023-08-19T10:05:59.593Z,37.87
2023-08-19T10:06:59.551Z,37.95
2023-08-19T10:07:59.566Z,37.96
2023-08-19T10:08:59.530Z,37.84
2023-08-19T10:09:59.540Z,37.82
2023-08-19T10:10:59.500Z,37.77
2023-08-19T10:11:59.500Z,37.63
2023-08-19T10:12:59.486Z,37.56
2023-08-19T10:13:59.470Z,37.56
2023-08-19T10:14:59.481Z,37.58
2023-08-19T10:15:59.458Z,37.58
2023-08-19T10:16:59.455Z,37.58
2023-08-19T10:17:59.496Z,37.60
2023-08-19T10:18:59.421Z,37.60
2023-08-19T10:19:59.512Z,37.66
2023-08-19T10:20:59.403Z,37.58
2023-08-19T10:21:59.418Z,37.42
2023-08-19T10:22:59.358Z,37.45
2023-08-19T10:23:59.369Z,37.39
2023-08-19T10:24:59.367Z,37.38
2023-08-19T10:25:59.342Z,37.42
2023-08-19T10:26:59.333Z,37.47
2023-08-19T10:27:59.303Z,37.62
2023-08-19T10:28:59.982Z,37.72
2023-08-19T10:29:59.291Z,37.77
2023-08-19T10:30:59.311Z,37.81
2023-08-19T10:31:59.280Z,37.85
2023-08-19T10:32:59.264Z,37.93
2023-08-19T10:33:59.247Z,37.96
2023-08-19T10:34:59.215Z,38.00
2023-08-19T10:35:59.330Z,38.03
2023-08-19T10:36:59.200Z,38.07
2023-08-19T10:37:59.205Z,37.97
2023-08-19T10:38:59.170Z,37.91
2023-08-19T10:39:59.181Z,37.85
2023-08-19T10:40:59.183Z,37.93
2023-08-19T10:41:59.154Z,37.97
2023-08-19T10:42:59.146Z,37.91
2023-08-19T10:43:59.133Z,37.95
2023-08-19T10:44:59.110Z,38.00
2023-08-19T10:45:59.111Z,38.06
2023-08-19T10:46:59.076Z,38.12
2023-08-19T10:47:59.122Z,38.18
2023-08-19T10:48:59.079Z,38.24
2023-08-19T10:49:59.064Z,38.28
2023-08-19T10:50:59.023Z,38.38
2023-08-19T10:51:59.119Z,38.44
2023-08-19T10:52:59.028Z,38.55
2023-08-19T10:53:59.068Z,38.63
2023-08-19T10:54:59.003Z,38.68
2023-08-19T10:55:58.964Z,38.72
2023-08-19T10:56:58.991Z,38.74
2023-08-19T10:57:58.965Z,38.78
2023-08-19T10:58:58.943Z,38.81
2023-08-19T10:59:58.955Z,38.82
2023-08-19T11:00:59.053Z,38.87
2023-08-19T11:01:58.959Z,38.92
2023-08-19T11:02:58.927Z,38.78
2023-08-19T11:03:58.920Z,38.63
2023-08-19T11:04:58.972Z,38.56
2023-08-19T11:05:58.878Z,38.53
2023-08-19T11:06:58.880Z,38.45
2023-08-19T11:07:58.870Z,38.40
2023-08-19T11:08:58.835Z,38.22
2023-08-19T11:09:58.809Z,38.14
2023-08-19T11:10:58.807Z,38.03
2023-08-19T11:11:58.771Z,38.02
2023-08-19T11:12:58.790Z,38.07
2023-08-19T11:13:58.765Z,38.14
2023-08-19T11:14:58.757Z,38.19
2023-08-19T11:15:58.741Z,38.30
2023-08-19T11:16:58.755Z,38.37
2023-08-19T11:17:58.767Z,38.36
2023-08-19T11:18:59.144Z,38.33
2023-08-19T11:19:58.699Z,38.28
2023-08-19T11:20:58.674Z,38.16
2023-08-19T11:21:58.687Z,38.15
2023-08-19T11:22:58.698Z,38.16
2023-08-19T11:23:58.641Z,38.21
2023-08-19T11:24:58.627Z,38.30
2023-08-19T11:25:58.719Z,38.38
2023-08-19T11:26:58.627Z,38.47
2023-08-19T11:27:58.581Z,38.55
2023-08-19T11:28:58.583Z,38.58
2023-08-19T11:29:58.566Z,38.63
2023-08-19T11:30:58.589Z,38.70
2023-08-19T11:31:58.664Z,38.75
2023-08-19T11:32:58.600Z,38.77
2023-08-19T11:33:58.534Z,38.71
2023-08-19T11:34:58.540Z,38.67
2023-08-19T11:35:58.515Z,38.63
2023-08-19T11:36:58.503Z,38.60
2023-08-19T11:37:58.471Z,38.53
2023-08-19T11:38:58.462Z,38.36
2023-08-19T11:39:58.464Z,38.31
2023-08-19T11:40:58.457Z,38.31
2023-08-19T11:41:58.436Z,38.18
2023-08-19T11:42:58.416Z,38.14
2023-08-19T11:43:58.401Z,38.06
2023-08-19T11:44:58.401Z,38.00
2023-08-19T11:45:58.432Z,38.03
2023-08-19T11:46:58.534Z,38.04
2023-08-19T11:47:58.416Z,38.04
2023-08-19T11:48:58.345Z,38.12
2023-08-19T11:49:58.358Z,38.09
2023-08-19T11:50:58.439Z,38.10
2023-08-19T11:51:58.311Z,38.15
2023-08-19T11:52:58.318Z,38.14
2023-08-19T11:53:58.277Z,38.16
2023-08-19T11:54:58.317Z,38.12
2023-08-19T11:55:58.260Z,38.07
2023-08-19T11:56:58.463Z,38.00
2023-08-19T11:57:58.270Z,37.95
2023-08-19T11:58:58.249Z,37.96
2023-08-19T11:59:58.222Z,38.03
2023-08-19T12:00:58.226Z,38.04
2023-08-19T12:01:58.190Z,38.04
2023-08-19T12:02:58.214Z,38.09
2023-08-19T12:03:58.233Z,38.12
2023-08-19T12:04:58.163Z,38.10
2023-08-19T12:05:58.145Z,37.97
2023-08-19T12:06:58.131Z,37.85
2023-08-19T12:07:58.164Z,37.87
2023-08-19T12:08:58.139Z,37.84
2023-08-19T12:09:58.114Z,37.93
2023-08-19T12:10:58.077Z,37.97
2023-08-19T12:11:58.077Z,38.04
2023-08-19T12:12:58.101Z,38.14
2023-08-19T12:13:58.096Z,38.19
2023-08-19T12:14:58.050Z,38.28
2023-08-19T12:15:58.015Z,38.34
2023-08-19T12:16:58.037Z,38.41
2023-08-19T12:17:58.128Z,38.44
2023-08-19T12:18:57.988Z,38.41
2023-08-19T12:19:57.982Z,38.41
2023-08-19T12:20:57.983Z,38.36
2023-08-19T12:21:57.993Z,38.30
2023-08-19T12:22:57.956Z,38.18
2023-08-19T12:23:57.944Z,38.07
2023-08-19T12:24:57.941Z,38.03
2023-08-19T12:25:57.918Z,38.02
2023-08-19T12:26:57.916Z,37.99
2023-08-19T12:27:57.883Z,37.96
2023-08-19T12:28:57.861Z,37.96
2023-08-19T12:29:57.862Z,37.95
2023-08-19T12:30:57.860Z,37.96
2023-08-19T12:31:57.885Z,37.96
2023-08-19T12:32:57.857Z,37.97
2023-08-19T12:33:57.809Z,37.99
2023-08-19T12:34:57.796Z,38.02
2023-08-19T12:36:15.943Z,38.07
2023-08-19T12:37:00.274Z,38.04
2023-08-19T12:37:57.749Z,38.06
2023-08-19T12:38:57.767Z,38.02
2023-08-19T12:39:57.736Z,37.90
2023-08-19T12:40:57.830Z,37.80
2023-08-19T12:41:57.740Z,37.56
2023-08-19T12:42:58.071Z,37.38
2023-08-19T12:43:57.690Z,37.33
2023-08-19T12:44:57.693Z,37.30
2023-08-19T12:45:57.730Z,37.33
2023-08-19T12:46:57.688Z,37.25
2023-08-19T12:47:57.684Z,37.24
2023-08-19T12:48:57.635Z,37.20
2023-08-19T12:49:57.634Z,37.16
2023-08-19T12:50:57.606Z,37.27
2023-08-19T12:51:57.593Z,37.38
2023-08-19T12:52:57.624Z,37.39